sensor_id;sensor_type;location;lat;lon;timestamp;P1;durP1;ratioP1;P2;durP2;ratioP2
85508;SDS011;75919;48.506;8.946;2024-02-16T06:31:29;11.23;;;8.38;;
85508;SDS011;75919;48.506;8.946;2024-02-16T06:33:55;14.15;;;7.95;;
85508;SDS011;75919;48.506;8.946;2024-02-16T06:36:22;7.68;;;6.95;;
85508;SDS011;75919;48.506;8.946;2024-02-16T06:38:48;10.13;;;6.40;;
85508;SDS011;75919;48.506;8.946;2024-02-16T06:41:13;10.90;;;8.02;;
85508;SDS011;75919;48.506;8.946;2024-02-16T06:43:39;8.95;;;7.32;;
85508;SDS011;75919;48.506;8.946;2024-02-16T06:46:05;10.77;;;7.97;;
85508;SDS011;75919;48.506;8.946;2024-02-16T06:48:31;10.73;;;7.30;;
85508;SDS011;75919;48.506;8.946;2024-02-16T06:50:56;15.18;;;9.20;;
85508;SDS011;75919;48.506;8.946;2024-02-16T06:53:22;11.30;;;9.75;;
85508;SDS011;75919;48.506;8.946;2024-02-16T06:55:47;14.73;;;11.68;;
85508;SDS011;75919;48.506;8.946;2024-02-16T06:58:14;14.90;;;10.30;;
85508;SDS011;75919;48.506;8.946;2024-02-16T07:00:39;11.30;;;8.70;;
85508;SDS011;75919;48.506;8.946;2024-02-16T07:03:07;8.85;;;6.45;;
85508;SDS011;75919;48.506;8.946;2024-02-16T07:05:33;8.55;;;6.00;;
85508;SDS011;75919;48.506;8.946;2024-02-16T07:07:59;10.00;;;7.35;;
85508;SDS011;75919;48.506;8.946;2024-02-16T07:10:25;8.27;;;6.88;;
85508;SDS011;75919;48.506;8.946;2024-02-16T07:12:51;7.97;;;5.90;;
85508;SDS011;75919;48.506;8.946;2024-02-16T07:15:16;7.85;;;6.20;;
85508;SDS011;75919;48.506;8.946;2024-02-16T07:17:42;6.53;;;5.40;;
85508;SDS011;75919;48.506;8.946;2024-02-16T07:20:08;5.90;;;4.97;;
85508;SDS011;75919;48.506;8.946;2024-02-16T07:22:34;9.25;;;5.65;;
85508;SDS011;75919;48.506;8.946;2024-02-16T07:25:00;8.75;;;6.20;;
85508;SDS011;75919;48.506;8.946;2024-02-16T07:27:26;8.20;;;5.90;;
85508;SDS011;75919;48.506;8.946;2024-02-16T07:29:51;5.90;;;5.28;;
85508;SDS011;75919;48.506;8.946;2024-02-16T07:32:17;5.80;;;5.20;;
85508;SDS011;75919;48.506;8.946;2024-02-16T07:34:46;16.83;;;9.98;;
85508;SDS011;75919;48.506;8.946;2024-02-16T07:37:12;10.50;;;8.98;;
85508;SDS011;75919;48.506;8.946;2024-02-16T07:39:39;11.43;;;9.40;;
85508;SDS011;75919;48.506;8.946;2024-02-16T07:42:06;11.10;;;8.50;;
85508;SDS011;75919;48.506;8.946;2024-02-16T07:44:34;10.68;;;8.45;;
85508;SDS011;75919;48.506;8.946;2024-02-16T07:47:02;10.77;;;8.25;;
85508;SDS011;75919;48.506;8.946;2024-02-16T07:49:28;11.07;;;8.13;;
85508;SDS011;75919;48.506;8.946;2024-02-16T07:51:54;7.72;;;6.70;;
85508;SDS011;75919;48.506;8.946;2024-02-16T07:54:20;10.48;;;7.97;;
85508;SDS011;75919;48.506;8.946;2024-02-16T07:56:46;10.82;;;7.68;;
85508;SDS011;75919;48.506;8.946;2024-02-16T07:59:11;12.05;;;7.50;;
85508;SDS011;75919;48.506;8.946;2024-02-16T08:01:37;11.48;;;7.13;;
85508;SDS011;75919;48.506;8.946;2024-02-16T08:04:03;12.32;;;7.28;;
85508;SDS011;75919;48.506;8.946;2024-02-16T08:06:29;9.40;;;7.25;;
85508;SDS011;75919;48.506;8.946;2024-02-16T08:08:55;7.78;;;6.50;;
85508;SDS011;75919;48.506;8.946;2024-02-16T08:11:21;11.63;;;7.55;;
85508;SDS011;75919;48.506;8.946;2024-02-16T08:13:47;10.30;;;6.95;;
85508;SDS011;75919;48.506;8.946;2024-02-16T08:16:13;9.27;;;6.68;;
85508;SDS011;75919;48.506;8.946;2024-02-16T08:18:39;12.05;;;7.18;;
85508;SDS011;75919;48.506;8.946;2024-02-16T08:21:04;13.30;;;7.68;;
85508;SDS011;75919;48.506;8.946;2024-02-16T08:23:30;11.10;;;6.78;;
85508;SDS011;75919;48.506;8.946;2024-02-16T08:25:56;8.00;;;5.90;;
85508;SDS011;75919;48.506;8.946;2024-02-16T08:28:23;9.60;;;6.97;;
85508;SDS011;75919;48.506;8.946;2024-02-16T08:30:49;7.90;;;6.40;;
85508;SDS011;75919;48.506;8.946;2024-02-16T08:33:15;11.20;;;6.90;;
85508;SDS011;75919;48.506;8.946;2024-02-16T08:35:41;11.75;;;7.03;;
85508;SDS011;75919;48.506;8.946;2024-02-16T08:38:06;8.15;;;6.78;;
85508;SDS011;75919;48.506;8.946;2024-02-16T08:40:36;9.80;;;7.13;;
85508;SDS011;75919;48.506;8.946;2024-02-16T08:43:03;13.52;;;4.93;;
85508;SDS011;75919;48.506;8.946;2024-02-16T08:45:30;6.18;;;4.20;;
85508;SDS011;75919;48.506;8.946;2024-02-16T08:47:55;6.25;;;4.30;;
85508;SDS011;75919;48.506;8.946;2024-02-16T08:50:22;6.72;;;4.40;;
85508;SDS011;75919;48.506;8.946;2024-02-16T08:52:49;7.53;;;4.25;;
85508;SDS011;75919;48.506;8.946;2024-02-16T08:55:15;5.43;;;4.05;;
85508;SDS011;75919;48.506;8.946;2024-02-16T08:57:41;5.13;;;3.90;;
85508;SDS011;75919;48.506;8.946;2024-02-16T09:00:07;8.48;;;4.53;;
85508;SDS011;75919;48.506;8.946;2024-02-16T09:02:34;7.93;;;4.75;;
85508;SDS011;75919;48.506;8.946;2024-02-16T09:04:59;6.40;;;4.50;;
85508;SDS011;75919;48.506;8.946;2024-02-16T09:07:25;7.63;;;4.70;;
85508;SDS011;75919;48.506;8.946;2024-02-16T09:09:51;5.25;;;4.47;;
85508;SDS011;75919;48.506;8.946;2024-02-16T09:12:17;5.20;;;4.00;;
85508;SDS011;75919;48.506;8.946;2024-02-16T09:14:42;7.22;;;4.00;;
85508;SDS011;75919;48.506;8.946;2024-02-16T09:17:08;5.93;;;4.05;;
85508;SDS011;75919;48.506;8.946;2024-02-16T09:19:34;6.22;;;3.95;;
85508;SDS011;75919;48.506;8.946;2024-02-16T09:21:59;5.10;;;3.72;;
85508;SDS011;75919;48.506;8.946;2024-02-16T09:24:28;5.65;;;4.10;;
85508;SDS011;75919;48.506;8.946;2024-02-16T09:26:55;6.93;;;4.03;;
85508;SDS011;75919;48.506;8.946;2024-02-16T09:29:23;7.28;;;4.28;;
85508;SDS011;75919;48.506;8.946;2024-02-16T09:31:48;5.38;;;3.72;;
85508;SDS011;75919;48.506;8.946;2024-02-16T09:34:15;17.25;;;4.28;;
85508;SDS011;75919;48.506;8.946;2024-02-16T09:36:40;5.35;;;3.78;;
85508;SDS011;75919;48.506;8.946;2024-02-16T09:39:06;5.70;;;3.45;;
85508;SDS011;75919;48.506;8.946;2024-02-16T09:41:35;5.28;;;3.38;;
85508;SDS011;75919;48.506;8.946;2024-02-16T09:44:02;5.72;;;4.70;;
85508;SDS011;75919;48.506;8.946;2024-02-16T09:46:28;12.18;;;5.57;;
85508;SDS011;75919;48.506;8.946;2024-02-16T09:48:56;7.28;;;5.88;;
85508;SDS011;75919;48.506;8.946;2024-02-16T09:51:26;6.63;;;5.45;;
85508;SDS011;75919;48.506;8.946;2024-02-16T09:53:53;8.88;;;5.15;;
85508;SDS011;75919;48.506;8.946;2024-02-16T09:56:20;5.47;;;4.80;;
85508;SDS011;75919;48.506;8.946;2024-02-16T09:58:46;7.45;;;5.03;;
85508;SDS011;75919;48.506;8.946;2024-02-16T10:01:17;7.68;;;5.40;;
85508;SDS011;75919;48.506;8.946;2024-02-16T10:03:46;9.02;;;4.80;;
85508;SDS011;75919;48.506;8.946;2024-02-16T10:06:13;6.13;;;4.35;;
85508;SDS011;75919;48.506;8.946;2024-02-16T10:08:50;6.15;;;4.50;;
85508;SDS011;75919;48.506;8.946;2024-02-16T10:11:17;8.32;;;4.85;;
85508;SDS011;75919;48.506;8.946;2024-02-16T10:13:56;7.40;;;3.90;;
85508;SDS011;75919;48.506;8.946;2024-02-16T10:16:23;4.90;;;3.85;;
85508;SDS011;75919;48.506;8.946;2024-02-16T10:18:49;6.82;;;4.35;;
85508;SDS011;75919;48.506;8.946;2024-02-16T10:21:24;5.75;;;4.47;;
85508;SDS011;75919;48.506;8.946;2024-02-16T10:24:01;6.57;;;4.75;;
85508;SDS011;75919;48.506;8.946;2024-02-16T10:26:28;6.28;;;4.65;;
85508;SDS011;75919;48.506;8.946;2024-02-16T10:28:55;5.40;;;4.40;;
85508;SDS011;75919;48.506;8.946;2024-02-16T10:31:23;6.57;;;3.40;;
85508;SDS011;75919;48.506;8.946;2024-02-16T10:34:14;4.30;;;2.97;;
85508;SDS011;75919;48.506;8.946;2024-02-16T10:36:42;5.00;;;3.20;;
85508;SDS011;75919;48.506;8.946;2024-02-16T10:39:09;5.13;;;2.88;;
85508;SDS011;75919;48.506;8.946;2024-02-16T10:41:42;6.55;;;3.20;;
85508;SDS011;75919;48.506;8.946;2024-02-16T10:44:10;3.22;;;2.92;;
85508;SDS011;75919;48.506;8.946;2024-02-16T10:46:36;3.83;;;2.60;;
85508;SDS011;75919;48.506;8.946;2024-02-16T10:49:03;3.15;;;2.85;;
85508;SDS011;75919;48.506;8.946;2024-02-16T10:51:35;3.15;;;2.83;;
85508;SDS011;75919;48.506;8.946;2024-02-16T10:54:10;3.28;;;2.75;;
85508;SDS011;75919;48.506;8.946;2024-02-16T10:56:38;4.00;;;2.60;;
85508;SDS011;75919;48.506;8.946;2024-02-16T10:59:06;3.13;;;2.50;;
85508;SDS011;75919;48.506;8.946;2024-02-16T11:01:39;3.95;;;2.40;;
85508;SDS011;75919;48.506;8.946;2024-02-16T11:04:07;3.88;;;2.17;;
85508;SDS011;75919;48.506;8.946;2024-02-16T11:06:47;3.75;;;2.50;;
85508;SDS011;75919;48.506;8.946;2024-02-16T11:09:25;3.70;;;2.30;;
85508;SDS011;75919;48.506;8.946;2024-02-16T11:11:55;5.50;;;2.60;;
85508;SDS011;75919;48.506;8.946;2024-02-16T11:14:24;3.70;;;2.63;;
85508;SDS011;75919;48.506;8.946;2024-02-16T11:17:12;4.15;;;3.75;;
85508;SDS011;75919;48.506;8.946;2024-02-16T11:19:46;3.78;;;2.40;;
85508;SDS011;75919;48.506;8.946;2024-02-16T11:22:16;3.97;;;2.40;;
85508;SDS011;75919;48.506;8.946;2024-02-16T11:24:46;3.20;;;2.28;;
85508;SDS011;75919;48.506;8.946;2024-02-16T11:27:15;6.20;;;2.35;;
85508;SDS011;75919;48.506;8.946;2024-02-16T11:29:44;6.13;;;2.55;;
85508;SDS011;75919;48.506;8.946;2024-02-16T11:32:11;6.97;;;2.63;;
85508;SDS011;75919;48.506;8.946;2024-02-16T11:34:37;2.95;;;2.53;;
85508;SDS011;75919;48.506;8.946;2024-02-16T11:37:06;2.50;;;2.30;;
85508;SDS011;75919;48.506;8.946;2024-02-16T11:39:32;2.50;;;2.30;;
85508;SDS011;75919;48.506;8.946;2024-02-16T11:42:07;3.30;;;2.20;;
85508;SDS011;75919;48.506;8.946;2024-02-16T11:44:37;5.10;;;2.35;;
85508;SDS011;75919;48.506;8.946;2024-02-16T11:47:07;3.80;;;2.35;;
85508;SDS011;75919;48.506;8.946;2024-02-16T11:49:42;4.32;;;2.50;;
85508;SDS011;75919;48.506;8.946;2024-02-16T11:52:08;4.00;;;2.55;;
85508;SDS011;75919;48.506;8.946;2024-02-16T11:54:33;3.65;;;2.10;;
85508;SDS011;75919;48.506;8.946;2024-02-16T11:57:00;3.90;;;2.35;;
85508;SDS011;75919;48.506;8.946;2024-02-16T11:59:26;5.03;;;2.03;;
85508;SDS011;75919;48.506;8.946;2024-02-16T12:01:55;5.50;;;2.78;;
85508;SDS011;75919;48.506;8.946;2024-02-16T12:04:23;2.92;;;2.30;;
85508;SDS011;75919;48.506;8.946;2024-02-16T12:06:57;5.70;;;2.65;;
85508;SDS011;75919;48.506;8.946;2024-02-16T12:09:23;3.42;;;2.30;;
85508;SDS011;75919;48.506;8.946;2024-02-16T12:11:50;4.40;;;2.67;;
85508;SDS011;75919;48.506;8.946;2024-02-16T12:14:17;4.43;;;2.60;;
85508;SDS011;75919;48.506;8.946;2024-02-16T12:16:50;6.32;;;3.20;;
85508;SDS011;75919;48.506;8.946;2024-02-16T12:19:21;5.13;;;2.90;;
85508;SDS011;75919;48.506;8.946;2024-02-16T12:21:51;5.55;;;2.78;;
85508;SDS011;75919;48.506;8.946;2024-02-16T12:24:20;4.38;;;3.10;;
85508;SDS011;75919;48.506;8.946;2024-02-16T12:26:46;6.50;;;3.10;;
85508;SDS011;75919;48.506;8.946;2024-02-16T12:29:12;6.15;;;2.67;;
85508;SDS011;75919;48.506;8.946;2024-02-16T12:31:45;4.68;;;2.95;;
85508;SDS011;75919;48.506;8.946;2024-02-16T12:34:13;6.07;;;2.50;;
85508;SDS011;75919;48.506;8.946;2024-02-16T12:36:39;4.30;;;2.92;;
85508;SDS011;75919;48.506;8.946;2024-02-16T12:39:05;4.68;;;3.17;;
85508;SDS011;75919;48.506;8.946;2024-02-16T12:41:32;7.63;;;3.63;;
85508;SDS011;75919;48.506;8.946;2024-02-16T12:43:59;7.82;;;3.13;;
85508;SDS011;75919;48.506;8.946;2024-02-16T12:46:25;7.25;;;2.78;;
85508;SDS011;75919;48.506;8.946;2024-02-16T12:48:51;3.60;;;2.75;;
85508;SDS011;75919;48.506;8.946;2024-02-16T12:51:17;3.92;;;2.70;;
85508;SDS011;75919;48.506;8.946;2024-02-16T12:53:43;3.75;;;2.38;;
85508;SDS011;75919;48.506;8.946;2024-02-16T12:56:09;4.93;;;2.50;;
85508;SDS011;75919;48.506;8.946;2024-02-16T12:58:35;4.85;;;2.60;;
85508;SDS011;75919;48.506;8.946;2024-02-16T13:01:05;4.35;;;2.42;;
85508;SDS011;75919;48.506;8.946;2024-02-16T13:03:33;4.88;;;2.60;;
85508;SDS011;75919;48.506;8.946;2024-02-16T13:06:01;5.63;;;2.30;;
85508;SDS011;75919;48.506;8.946;2024-02-16T13:08:28;7.75;;;2.58;;
85508;SDS011;75919;48.506;8.946;2024-02-16T13:10:55;8.07;;;3.33;;
85508;SDS011;75919;48.506;8.946;2024-02-16T13:13:21;6.32;;;2.58;;
85508;SDS011;75919;48.506;8.946;2024-02-16T13:15:47;6.35;;;2.53;;
85508;SDS011;75919;48.506;8.946;2024-02-16T13:18:13;7.70;;;2.70;;
85508;SDS011;75919;48.506;8.946;2024-02-16T13:20:39;4.82;;;2.40;;
85508;SDS011;75919;48.506;8.946;2024-02-16T13:23:05;3.97;;;2.13;;
85508;SDS011;75919;48.506;8.946;2024-02-16T13:25:31;5.03;;;2.35;;
85508;SDS011;75919;48.506;8.946;2024-02-16T13:27:56;7.47;;;2.65;;
85508;SDS011;75919;48.506;8.946;2024-02-16T13:30:22;6.13;;;2.63;;
85508;SDS011;75919;48.506;8.946;2024-02-16T13:32:48;8.68;;;3.15;;
85508;SDS011;75919;48.506;8.946;2024-02-16T13:35:13;6.88;;;2.83;;
85508;SDS011;75919;48.506;8.946;2024-02-16T13:37:40;6.18;;;2.22;;
85508;SDS011;75919;48.506;8.946;2024-02-16T13:40:08;5.57;;;2.40;;
85508;SDS011;75919;48.506;8.946;2024-02-16T13:42:38;4.28;;;2.50;;
85508;SDS011;75919;48.506;8.946;2024-02-16T13:45:04;6.05;;;2.70;;
85508;SDS011;75919;48.506;8.946;2024-02-16T13:47:30;5.55;;;2.53;;
85508;SDS011;75919;48.506;8.946;2024-02-16T13:49:55;8.63;;;3.03;;
85508;SDS011;75919;48.506;8.946;2024-02-16T13:52:22;7.00;;;3.83;;
85508;SDS011;75919;48.506;8.946;2024-02-16T13:54:49;8.93;;;4.32;;
85508;SDS011;75919;48.506;8.946;2024-02-16T13:57:14;7.95;;;3.45;;
85508;SDS011;75919;48.506;8.946;2024-02-16T13:59:40;9.65;;;3.75;;
85508;SDS011;75919;48.506;8.946;2024-02-16T14:02:07;7.22;;;3.30;;
85508;SDS011;75919;48.506;8.946;2024-02-16T14:04:33;5.03;;;2.63;;
85508;SDS011;75919;48.506;8.946;2024-02-16T14:06:59;7.35;;;3.10;;
85508;SDS011;75919;48.506;8.946;2024-02-16T14:09:24;5.18;;;2.72;;
85508;SDS011;75919;48.506;8.946;2024-02-16T14:11:51;6.80;;;2.67;;
85508;SDS011;75919;48.506;8.946;2024-02-16T14:14:19;3.97;;;2.67;;
85508;SDS011;75919;48.506;8.946;2024-02-16T14:16:44;6.47;;;2.90;;
85508;SDS011;75919;48.506;8.946;2024-02-16T14:19:10;6.45;;;2.85;;
85508;SDS011;75919;48.506;8.946;2024-02-16T14:21:36;4.35;;;2.55;;
85508;SDS011;75919;48.506;8.946;2024-02-16T14:24:01;6.03;;;2.42;;
85508;SDS011;75919;48.506;8.946;2024-02-16T14:26:27;6.75;;;2.83;;
85508;SDS011;75919;48.506;8.946;2024-02-16T14:28:54;6.43;;;2.45;;
85508;SDS011;75919;48.506;8.946;2024-02-16T14:31:20;5.00;;;2.70;;
85508;SDS011;75919;48.506;8.946;2024-02-16T14:33:49;7.90;;;2.17;;
85508;SDS011;75919;48.506;8.946;2024-02-16T14:36:15;5.32;;;2.28;;
85508;SDS011;75919;48.506;8.946;2024-02-16T14:38:41;6.72;;;2.67;;
85508;SDS011;75919;48.506;8.946;2024-02-16T14:41:06;6.50;;;2.88;;
85508;SDS011;75919;48.506;8.946;2024-02-16T14:43:33;6.75;;;2.53;;
85508;SDS011;75919;48.506;8.946;2024-02-16T14:45:59;7.28;;;3.10;;
85508;SDS011;75919;48.506;8.946;2024-02-16T14:48:25;5.97;;;2.70;;
85508;SDS011;75919;48.506;8.946;2024-02-16T14:50:54;4.32;;;2.58;;
85508;SDS011;75919;48.506;8.946;2024-02-16T14:53:20;9.48;;;2.63;;
85508;SDS011;75919;48.506;8.946;2024-02-16T14:55:46;8.57;;;2.67;;
85508;SDS011;75919;48.506;8.946;2024-02-16T14:58:12;6.90;;;2.92;;
85508;SDS011;75919;48.506;8.946;2024-02-16T15:00:38;5.75;;;2.50;;
85508;SDS011;75919;48.506;8.946;2024-02-16T15:03:04;5.90;;;2.63;;
85508;SDS011;75919;48.506;8.946;2024-02-16T15:05:30;4.43;;;2.03;;
85508;SDS011;75919;48.506;8.946;2024-02-16T15:07:55;8.85;;;2.50;;
85508;SDS011;75919;48.506;8.946;2024-02-16T15:10:21;4.45;;;1.98;;
85508;SDS011;75919;48.506;8.946;2024-02-16T15:12:47;7.13;;;2.55;;
85508;SDS011;75919;48.506;8.946;2024-02-16T15:15:13;4.68;;;1.92;;
85508;SDS011;75919;48.506;8.946;2024-02-16T15:17:39;7.68;;;2.50;;
85508;SDS011;75919;48.506;8.946;2024-02-16T15:20:05;8.07;;;2.40;;
85508;SDS011;75919;48.506;8.946;2024-02-16T15:22:31;6.75;;;2.35;;
85508;SDS011;75919;48.506;8.946;2024-02-16T15:24:58;7.53;;;2.05;;
85508;SDS011;75919;48.506;8.946;2024-02-16T15:27:23;5.43;;;2.17;;
85508;SDS011;75919;48.506;8.946;2024-02-16T15:29:50;4.05;;;2.17;;
85508;SDS011;75919;48.506;8.946;2024-02-16T15:32:16;4.00;;;2.05;;
85508;SDS011;75919;48.506;8.946;2024-02-16T15:34:42;7.50;;;3.38;;
85508;SDS011;75919;48.506;8.946;2024-02-16T15:37:11;5.85;;;2.40;;
85508;SDS011;75919;48.506;8.946;2024-02-16T15:39:37;3.80;;;2.28;;
85508;SDS011;75919;48.506;8.946;2024-02-16T15:42:04;7.28;;;2.35;;
85508;SDS011;75919;48.506;8.946;2024-02-16T15:44:32;5.78;;;2.20;;
85508;SDS011;75919;48.506;8.946;2024-02-16T15:46:57;5.70;;;2.40;;
85508;SDS011;75919;48.506;8.946;2024-02-16T15:49:23;3.58;;;2.75;;
85508;SDS011;75919;48.506;8.946;2024-02-16T15:51:49;6.25;;;2.58;;
85508;SDS011;75919;48.506;8.946;2024-02-16T15:54:17;4.88;;;2.53;;
85508;SDS011;75919;48.506;8.946;2024-02-16T15:56:43;4.93;;;2.60;;
85508;SDS011;75919;48.506;8.946;2024-02-16T15:59:09;5.75;;;2.63;;
85508;SDS011;75919;48.506;8.946;2024-02-16T16:01:34;7.10;;;3.20;;
85508;SDS011;75919;48.506;8.946;2024-02-16T16:04:00;8.23;;;3.38;;
85508;SDS011;75919;48.506;8.946;2024-02-16T16:06:26;5.85;;;3.13;;
85508;SDS011;75919;48.506;8.946;2024-02-16T16:08:52;9.48;;;2.97;;
85508;SDS011;75919;48.506;8.946;2024-02-16T16:11:20;5.63;;;2.60;;
85508;SDS011;75919;48.506;8.946;2024-02-16T16:13:46;5.10;;;2.88;;
85508;SDS011;75919;48.506;8.946;2024-02-16T16:16:12;5.63;;;3.00;;
85508;SDS011;75919;48.506;8.946;2024-02-16T16:18:37;5.65;;;2.70;;
85508;SDS011;75919;48.506;8.946;2024-02-16T16:21:03;6.13;;;3.20;;
85508;SDS011;75919;48.506;8.946;2024-02-16T16:23:33;7.50;;;3.25;;
85508;SDS011;75919;48.506;8.946;2024-02-16T16:26:01;8.48;;;3.45;;
85508;SDS011;75919;48.506;8.946;2024-02-16T16:28:28;7.15;;;3.03;;
85508;SDS011;75919;48.506;8.946;2024-02-16T16:30:54;6.18;;;2.92;;
85508;SDS011;75919;48.506;8.946;2024-02-16T16:33:20;5.60;;;3.33;;
85508;SDS011;75919;48.506;8.946;2024-02-16T16:35:45;7.00;;;3.42;;
85508;SDS011;75919;48.506;8.946;2024-02-16T16:38:11;5.88;;;3.38;;
85508;SDS011;75919;48.506;8.946;2024-02-16T16:40:37;5.75;;;3.08;;
85508;SDS011;75919;48.506;8.946;2024-02-16T16:43:03;4.68;;;3.22;;
85508;SDS011;75919;48.506;8.946;2024-02-16T16:45:29;5.63;;;3.00;;
85508;SDS011;75919;48.506;8.946;2024-02-16T16:47:56;5.45;;;3.20;;
85508;SDS011;75919;48.506;8.946;2024-02-16T16:50:23;7.28;;;3.35;;
85508;SDS011;75919;48.506;8.946;2024-02-16T16:52:48;5.63;;;3.78;;
85508;SDS011;75919;48.506;8.946;2024-02-16T16:55:14;4.28;;;3.28;;
85508;SDS011;75919;48.506;8.946;2024-02-16T16:57:40;8.02;;;3.58;;
85508;SDS011;75919;48.506;8.946;2024-02-16T17:00:06;10.65;;;5.70;;
85508;SDS011;75919;48.506;8.946;2024-02-16T17:02:34;13.05;;;5.63;;
85508;SDS011;75919;48.506;8.946;2024-02-16T17:04:59;8.70;;;5.22;;
85508;SDS011;75919;48.506;8.946;2024-02-16T17:07:25;17.38;;;10.57;;
85508;SDS011;75919;48.506;8.946;2024-02-16T17:09:51;7.93;;;4.93;;
85508;SDS011;75919;48.506;8.946;2024-02-16T17:12:22;10.18;;;5.18;;
85508;SDS011;75919;48.506;8.946;2024-02-16T17:14:48;7.35;;;5.03;;
85508;SDS011;75919;48.506;8.946;2024-02-16T17:17:14;11.25;;;5.90;;
85508;SDS011;75919;48.506;8.946;2024-02-16T17:19:40;7.47;;;5.63;;
85508;SDS011;75919;48.506;8.946;2024-02-16T17:22:06;10.00;;;5.78;;
85508;SDS011;75919;48.506;8.946;2024-02-16T17:24:32;8.20;;;5.60;;
85508;SDS011;75919;48.506;8.946;2024-02-16T17:26:57;5.97;;;4.45;;
85508;SDS011;75919;48.506;8.946;2024-02-16T17:29:23;7.45;;;5.07;;
85508;SDS011;75919;48.506;8.946;2024-02-16T17:31:50;6.15;;;3.70;;
85508;SDS011;75919;48.506;8.946;2024-02-16T17:34:17;4.55;;;3.83;;
85508;SDS011;75919;48.506;8.946;2024-02-16T17:36:42;6.50;;;4.50;;
85508;SDS011;75919;48.506;8.946;2024-02-16T17:39:08;7.25;;;4.60;;
85508;SDS011;75919;48.506;8.946;2024-02-16T17:41:34;7.80;;;6.53;;
85508;SDS011;75919;48.506;8.946;2024-02-16T17:44:01;12.07;;;8.10;;
85508;SDS011;75919;48.506;8.946;2024-02-16T17:46:27;13.55;;;8.13;;
85508;SDS011;75919;48.506;8.946;2024-02-16T17:48:54;6.57;;;4.05;;
85508;SDS011;75919;48.506;8.946;2024-02-16T17:51:21;8.52;;;3.70;;
85508;SDS011;75919;48.506;8.946;2024-02-16T17:53:49;7.18;;;3.70;;
85508;SDS011;75919;48.506;8.946;2024-02-16T17:56:18;11.02;;;7.22;;
85508;SDS011;75919;48.506;8.946;2024-02-16T17:58:52;5.25;;;3.70;;
85508;SDS011;75919;48.506;8.946;2024-02-16T18:01:18;8.10;;;4.80;;
85508;SDS011;75919;48.506;8.946;2024-02-16T18:03:44;7.18;;;6.18;;
85508;SDS011;75919;48.506;8.946;2024-02-16T18:06:11;8.85;;;6.70;;
85508;SDS011;75919;48.506;8.946;2024-02-16T18:08:37;9.23;;;6.30;;
85508;SDS011;75919;48.506;8.946;2024-02-16T18:11:03;7.45;;;5.00;;
85508;SDS011;75919;48.506;8.946;2024-02-16T18:13:29;7.55;;;4.47;;
85508;SDS011;75919;48.506;8.946;2024-02-16T18:15:55;6.35;;;4.97;;
85508;SDS011;75919;48.506;8.946;2024-02-16T18:18:20;10.10;;;5.07;;
85508;SDS011;75919;48.506;8.946;2024-02-16T18:20:46;9.20;;;5.78;;
85508;SDS011;75919;48.506;8.946;2024-02-16T18:23:14;7.15;;;4.80;;
85508;SDS011;75919;48.506;8.946;2024-02-16T18:25:40;5.80;;;3.75;;
85508;SDS011;75919;48.506;8.946;2024-02-16T18:28:05;6.32;;;4.25;;
85508;SDS011;75919;48.506;8.946;2024-02-16T18:30:31;7.85;;;4.68;;
85508;SDS011;75919;48.506;8.946;2024-02-16T18:32:57;4.70;;;3.53;;
85508;SDS011;75919;48.506;8.946;2024-02-16T18:35:22;7.82;;;3.22;;
85508;SDS011;75919;48.506;8.946;2024-02-16T18:37:48;5.30;;;3.30;;
85508;SDS011;75919;48.506;8.946;2024-02-16T18:40:14;8.57;;;6.25;;
85508;SDS011;75919;48.506;8.946;2024-02-16T18:42:39;11.00;;;7.10;;
85508;SDS011;75919;48.506;8.946;2024-02-16T18:45:05;7.40;;;5.07;;
85508;SDS011;75919;48.506;8.946;2024-02-16T18:47:35;9.23;;;5.28;;
85508;SDS011;75919;48.506;8.946;2024-02-16T18:50:01;7.95;;;5.88;;
85508;SDS011;75919;48.506;8.946;2024-02-16T18:52:27;7.43;;;5.22;;
85508;SDS011;75919;48.506;8.946;2024-02-16T18:54:53;6.10;;;3.75;;
85508;SDS011;75919;48.506;8.946;2024-02-16T18:57:19;8.55;;;4.57;;
85508;SDS011;75919;48.506;8.946;2024-02-16T18:59:44;5.03;;;4.07;;
85508;SDS011;75919;48.506;8.946;2024-02-16T19:02:10;5.35;;;4.10;;
85508;SDS011;75919;48.506;8.946;2024-02-16T19:04:36;5.63;;;4.20;;
85508;SDS011;75919;48.506;8.946;2024-02-16T19:07:02;4.95;;;4.07;;
85508;SDS011;75919;48.506;8.946;2024-02-16T19:09:28;6.43;;;4.55;;
85508;SDS011;75919;48.506;8.946;2024-02-16T19:11:54;6.22;;;4.25;;
85508;SDS011;75919;48.506;8.946;2024-02-16T19:14:20;8.70;;;4.20;;
85508;SDS011;75919;48.506;8.946;2024-02-16T19:16:49;7.32;;;4.45;;
85508;SDS011;75919;48.506;8.946;2024-02-16T19:19:15;5.28;;;3.90;;
85508;SDS011;75919;48.506;8.946;2024-02-16T19:21:41;8.85;;;4.90;;
85508;SDS011;75919;48.506;8.946;2024-02-16T19:24:07;13.80;;;6.90;;
85508;SDS011;75919;48.506;8.946;2024-02-16T19:26:33;14.00;;;8.25;;
85508;SDS011;75919;48.506;8.946;2024-02-16T19:29:01;12.57;;;7.22;;
85508;SDS011;75919;48.506;8.946;2024-02-16T19:31:27;16.70;;;9.10;;
85508;SDS011;75919;48.506;8.946;2024-02-16T19:33:53;12.73;;;8.48;;
85508;SDS011;75919;48.506;8.946;2024-02-16T19:36:19;11.60;;;7.55;;
85508;SDS011;75919;48.506;8.946;2024-02-16T19:38:45;8.68;;;6.10;;
85508;SDS011;75919;48.506;8.946;2024-02-16T19:41:12;5.47;;;4.05;;
85508;SDS011;75919;48.506;8.946;2024-02-16T19:43:38;6.40;;;4.57;;
85508;SDS011;75919;48.506;8.946;2024-02-16T19:46:03;9.85;;;4.55;;
85508;SDS011;75919;48.506;8.946;2024-02-16T19:48:29;10.27;;;5.53;;
85508;SDS011;75919;48.506;8.946;2024-02-16T19:50:55;9.13;;;5.72;;
85508;SDS011;75919;48.506;8.946;2024-02-16T19:53:21;15.63;;;7.93;;
85508;SDS011;75919;48.506;8.946;2024-02-16T19:55:47;10.45;;;6.57;;
85508;SDS011;75919;48.506;8.946;2024-02-16T19:58:13;9.02;;;6.10;;
85508;SDS011;75919;48.506;8.946;2024-02-16T20:00:39;14.63;;;7.82;;
85508;SDS011;75919;48.506;8.946;2024-02-16T20:03:04;15.98;;;10.95;;
85508;SDS011;75919;48.506;8.946;2024-02-16T20:05:30;12.27;;;8.55;;
85508;SDS011;75919;48.506;8.946;2024-02-16T20:07:59;11.57;;;7.53;;
85508;SDS011;75919;48.506;8.946;2024-02-16T20:10:26;10.35;;;7.03;;
85508;SDS011;75919;48.506;8.946;2024-02-16T20:12:51;8.77;;;6.28;;
85508;SDS011;75919;48.506;8.946;2024-02-16T20:15:17;9.23;;;6.78;;
85508;SDS011;75919;48.506;8.946;2024-02-16T20:17:44;11.40;;;6.95;;
85508;SDS011;75919;48.506;8.946;2024-02-16T20:20:10;9.50;;;7.20;;
85508;SDS011;75919;48.506;8.946;2024-02-16T20:22:36;13.18;;;7.80;;
85508;SDS011;75919;48.506;8.946;2024-02-16T20:25:01;10.73;;;7.05;;
85508;SDS011;75919;48.506;8.946;2024-02-16T20:27:31;12.43;;;8.00;;
85508;SDS011;75919;48.506;8.946;2024-02-16T20:29:57;14.43;;;8.57;;
